Flight Track Log - Related Links

Times and Time Zones

All times are in EDT time to prevent confusion due to time zone crossing. See the EJA328 flight status page for this flight to view local times or setup timezone preferences in your user account.

Time Position Orientation Groundspeed Altitude Reporting Facility
EDT Latitude Longitude Course Direction KTS MPH feet Rate Location/Type
Mon 06:01:24 PM 37.3652 -121.9330 319° Northwest 156 180 400  Level FlightAware ADS-B
Mon 06:01:40 PM 37.3749 -121.9440 317° Northwest 180 207 1,500 3,882 Climbing FlightAware ADS-B
Mon 06:01:41 PM 37.3734 -121.9419 318° Northwest 174 200 1,500 3,857 Level FlightAware ADS-B (EPRZ / RZE)
Mon 06:01:54 PM 37.3834 -121.9530 318° Northwest 186 214 2,400 3,789 Climbing FlightAware ADS-B
Mon 06:02:00 PM 37.3867 -121.9569 322° Northwest 191 220 2,700 2,667 Climbing FlightAware ADS-B (EPRZ / RZE)
Mon 06:02:03 PM 37.3906 -121.9600 332° Northwest 196 226 2,800 2,400 Climbing FlightAware ADS-B
Mon 06:02:10 PM 37.3962 -121.9610 347° North 203 234 3,100 3,000 Climbing FlightAware ADS-B
Mon 06:02:13 PM 37.3998 -121.9620 357° North 209 241 3,300 3,000 Climbing FlightAware ADS-B
Mon 06:02:16 PM 37.4028 -121.9610 North 214 246 3,400 1,000 Climbing FlightAware ADS-B
Mon 06:02:19 PM 37.4058 -121.9600 13° North 219 252 3,400 1,714 Level FlightAware ADS-B
Mon 06:02:23 PM 37.4098 -121.9590 23° Northeast 224 258 3,600 2,000 Climbing FlightAware ADS-B
Mon 06:02:28 PM 37.4141 -121.9550 32° Northeast 224 258 3,700 857 Climbing FlightAware ADS-B
Mon 06:02:30 PM 37.4137 -121.9558 34° Northeast 222 255 3,700 1,500 Level FlightAware ADS-B (EPRZ / RZE)
Mon 06:02:32 PM 37.4166 -121.9530 39° Northeast 221 254 3,800 1,800 Climbing FlightAware ADS-B
Mon 06:02:40 PM 37.4216 -121.9450 58° Northeast 217 250 4,000 1,333 Climbing FlightAware ADS-B
Mon 06:02:41 PM 37.4216 -121.9447 58° Northeast 217 250 4,000 2,000 Level FlightAware ADS-B (EPRZ / RZE)
Mon 06:02:43 PM 37.4233 -121.9400 67° East 219 252 4,100 2,250 Climbing FlightAware ADS-B
Mon 06:02:49 PM 37.4246 -121.9340 76° East 220 253 4,300 1,500 Climbing FlightAware ADS-B
Mon 06:02:51 PM 37.4248 -121.9322 78° East 220 253 4,300 4,000 Level FlightAware ADS-B (EPRZ / RZE)
Mon 06:02:52 PM 37.4250 -121.9290 85° East 217 250 4,500 4,800 Climbing FlightAware ADS-B
Mon 06:02:56 PM 37.4247 -121.9250 95° East 212 244 4,700 3,429 Climbing FlightAware ADS-B
Mon 06:02:59 PM 37.4239 -121.9210 103° East 208 239 4,900 3,000 Climbing FlightAware ADS-B
Mon 06:03:00 PM 37.4245 -121.9234 101° East 210 242 4,900 3,600 Level FlightAware ADS-B (EPRZ / RZE)
Mon 06:03:04 PM 37.4222 -121.9160 116° Southeast 208 239 5,200 3,750 Climbing FlightAware ADS-B
Mon 06:03:08 PM 37.4200 -121.9120 123° Southeast 209 241 5,400 3,000 Climbing FlightAware ADS-B
Mon 06:03:10 PM 37.4193 -121.9107 116° Southeast 208 239 5,500 3,429 Climbing FlightAware ADS-B (EPRZ / RZE)
Mon 06:03:15 PM 37.4155 -121.9050 133° Southeast 216 249 5,800 4,286 Climbing FlightAware ADS-B
Mon 06:03:24 PM 37.4091 -121.8973 135° Southeast 216 249 6,500 4,125 Climbing FlightAware ADS-B (EPLL / LCJ)
Mon 06:03:31 PM 37.4041 -121.8910 136° Southeast 219 252 6,900 3,750 Climbing FlightAware ADS-B
Mon 06:03:40 PM 37.3973 -121.8830 138° Southeast 220 253 7,500 4,105 Climbing FlightAware ADS-B
Mon 06:03:50 PM 37.3883 -121.8779 162° South 218 251 8,200 4,333 Climbing FlightAware ADS-B (EPRZ / RZE)
Mon 06:03:58 PM 37.3798 -121.8780 183° South 219 252 8,800 4,200 Climbing FlightAware ADS-B
Mon 06:04:00 PM 37.3798 -121.8776 190° South 222 255 8,900 3,000 Climbing FlightAware ADS-B (EPRZ / RZE)
Mon 06:04:02 PM 37.3752 -121.8790 195° South 224 258 9,000 2,727 Climbing FlightAware ADS-B
Mon 06:04:11 PM 37.3684 -121.8837 213° Southwest 232 267 9,400 3,500 Climbing FlightAware ADS-B (EPRZ / RZE)
Mon 06:04:14 PM 37.3647 -121.8880 222° Southwest 237 273 9,700 4,286 Climbing FlightAware ADS-B
Mon 06:04:18 PM 37.3618 -121.8920 231° Southwest 239 275 9,900 3,000 Climbing FlightAware ADS-B
Mon 06:04:20 PM 37.3615 -121.8928 231° Southwest 239 275 10,000 4,000 Climbing FlightAware ADS-B (EPRZ / RZE)
Mon 06:04:24 PM 37.3587 -121.8990 244° Southwest 243 280 10,300 4,500 Climbing FlightAware ADS-B
Mon 06:04:32 PM 37.3564 -121.9110 259° West 246 283 10,900 4,000 Climbing FlightAware ADS-B
Mon 06:04:36 PM 37.3561 -121.9160 267° West 250 288 11,100 2,571 Climbing FlightAware ADS-B
Mon 06:04:39 PM 37.3561 -121.9177 263° West 248 285 11,200 2,400 Climbing FlightAware ADS-B (EPLL / LCJ)
Mon 06:04:41 PM 37.3567 -121.9240 276° West 257 296 11,300 2,571 Climbing FlightAware ADS-B
Mon 06:04:46 PM 37.3580 -121.9310 285° West 266 306 11,500 2,571 Climbing FlightAware ADS-B
Mon 06:04:48 PM 37.3568 -121.9245 289° West 269 310 11,600 1,500 Climbing FlightAware ADS-B (EPRZ / RZE)
Mon 06:04:50 PM 37.3599 -121.9370 292° West 273 314 11,600  Level FlightAware ADS-B
Mon 06:04:55 PM 37.3630 -121.9430 302° West 282 325 11,600 667 Level FlightAware ADS-B
Mon 06:04:59 PM 37.3668 -121.9500 310° West 291 335 11,700 600 Climbing FlightAware ADS-B
Mon 06:05:05 PM 37.3718 -121.9560 318° Northwest 298 343 11,700 600 Level FlightAware ADS-B
Mon 06:05:09 PM 37.3767 -121.9600 324° Northwest 305 351 11,800 1,200 Climbing FlightAware ADS-B
Mon 06:05:10 PM 37.3779 -121.9614 322° Northwest 303 349 11,800  Level FlightAware ADS-B (EPRZ / RZE)
Mon 06:05:19 PM 37.3853 -121.9665 334° Northwest 315 362 11,800 375 Level FlightAware ADS-B (EPLL / LCJ)
Mon 06:05:26 PM 37.3995 -121.9720 348° North 329 379 11,900 545 Climbing FlightAware ADS-B
Mon 06:05:30 PM 37.4024 -121.9725 352° North 334 384 11,900 -667 Level FlightAware ADS-B (EPRZ / RZE)
Mon 06:05:35 PM 37.4143 -121.9740 358° North 341 392 11,800 -750 Descending FlightAware ADS-B
Mon 06:05:38 PM 37.4183 -121.9734 North 345 397 11,800  Level FlightAware ADS-B (EPLL / LCJ)
Mon 06:05:45 PM 37.4310 -121.9720 North 350 403 11,800  Level FlightAware ADS-B
Mon 06:05:54 PM 37.4446 -121.9700 North 357 411 11,800  Level FlightAware ADS-B
Mon 06:05:59 PM 37.4531 -121.9690 North 360 414 11,800  Level FlightAware ADS-B
Mon 06:06:03 PM 37.4595 -121.9690 359° North 362 417 11,800  Level FlightAware ADS-B
Mon 06:06:22 PM 37.4924 -121.9710 358° North 369 425 11,800  Level FlightAware ADS-B
Mon 06:06:26 PM 37.4997 -121.9710 North 371 427 11,800  Level FlightAware ADS-B
Mon 06:06:31 PM 37.5053 -121.9703 North 372 428 11,800  Level FlightAware ADS-B (EPRZ / RZE)
Mon 06:06:32 PM 37.5094 -121.9690 11° North 372 428 11,800  Level FlightAware ADS-B
Mon 06:06:38 PM 37.5190 -121.9650 19° North 373 429 11,800  Level FlightAware ADS-B
Mon 06:06:40 PM 37.5164 -121.9667 20° North 373 429 11,800 200 Level FlightAware ADS-B (EPRZ / RZE)
Mon 06:07:08 PM 37.5684 -121.9420 19° North 376 433 11,900 200 Climbing FlightAware ADS-B
Mon 06:07:10 PM 37.5684 -121.9420 19° North 376 433 11,900  Level FlightAware ADS-B (EPRZ / RZE)
Mon 06:07:38 PM 37.6185 -121.9200 19° North 379 436 11,900  Level FlightAware ADS-B
Mon 06:07:41 PM 37.6210 -121.9192 19° North 379 436 11,900  Level FlightAware ADS-B (EPRZ / RZE)
Mon 06:08:08 PM 37.6684 -121.8980 19° North 380 437 11,900  Level FlightAware ADS-B
Mon 06:08:20 PM 37.6647 -121.8999 19° North 381 438 11,900  Level FlightAware ADS-B (EPRZ / RZE)
Mon 06:08:38 PM 37.7184 -121.8760 19° North 381 438 11,900  Level FlightAware ADS-B
Mon 06:08:50 PM 37.7370 -121.8679 19° North 381 438 11,900  Level FlightAware ADS-B (EPLL / LCJ)
Mon 06:09:09 PM 37.7689 -121.8540 19° North 381 438 11,900 439 Level FlightAware ADS-B
Mon 06:09:31 PM 37.7930 -121.8432 19° North 381 438 12,200  Climbing FlightAware ADS-B (KSAC)
Mon 06:09:39 PM 37.8193 -121.8310 19° North 381 438 11,900 -462 Descending FlightAware ADS-B
Mon 06:10:10 PM 37.8713 -121.8080 19° North 380 437 11,900 563 Level FlightAware ADS-B
Mon 06:10:11 PM 37.8583 -121.8142 19° North 380 437 12,200  Climbing FlightAware ADS-B (KSAC)
Mon 06:10:41 PM 37.9218 -121.7860 19° North 380 437 11,900  Descending FlightAware ADS-B
Mon 06:10:50 PM 37.9228 -121.7855 19° North 379 436 12,200  Climbing FlightAware ADS-B (KSAC)
Mon 06:11:11 PM 37.9726 -121.7630 19° North 381 438 11,900 -778 Descending FlightAware ADS-B
Mon 06:11:44 PM 38.0268 -121.7390 19° North 376 433 11,500 -750 Descending FlightAware ADS-B
Mon 06:11:51 PM 38.0382 -121.7340 19° North 376 433 11,400 -800 Descending FlightAware ADS-B
Mon 06:12:14 PM 38.0765 -121.7170 19° North 374 430 11,100 -158 Descending FlightAware ADS-B
Mon 06:12:29 PM 38.0895 -121.7111 19° North 374 430 11,300 -387 Climbing FlightAware ADS-B (KSAC)
Mon 06:12:45 PM 38.1269 -121.6940 19° North 376 433 10,900 -143 Descending FlightAware ADS-B
Mon 06:13:11 PM 38.1574 -121.6807 19° North 377 434 11,200  Climbing FlightAware ADS-B (KSAC)
Mon 06:13:15 PM 38.1766 -121.6720 20° North 379 436 10,900  Descending FlightAware ADS-B
Mon 06:13:51 PM 38.2239 -121.6508 19° North 379 436 11,200 237 Climbing FlightAware ADS-B (KSAC)
Mon 06:14:31 PM 38.2907 -121.6207 19° North 381 438 11,200 -294 Level FlightAware ADS-B (KSAC)
Mon 06:15:33 PM 38.3890 -121.6138 356° North 311 358 10,700 -805 Descending FlightAware ADS-B (KSAC)
Mon 06:15:53 PM 38.4177 -121.6161 356° North 300 345 10,100 -2,154 Descending FlightAware ADS-B (KSAC)
Mon 06:16:12 PM 38.4443 -121.6183 356° North 296 341 9,300 -2,615 Descending FlightAware ADS-B (KSAC)
Mon 06:16:32 PM 38.4712 -121.6204 356° North 298 343 8,400 -2,780 Descending FlightAware ADS-B (KSAC)
Mon 06:16:53 PM 38.5003 -121.6223 357° North 297 342 7,400 -2,634 Descending FlightAware ADS-B (KSAC)
Mon 06:17:13 PM 38.5270 -121.6286 347° North 290 334 6,600 -2,237 Descending FlightAware ADS-B (KSAC)
Mon 06:17:52 PM 38.5769 -121.6432 346° North 274 315 5,200 -1,895 Descending FlightAware ADS-B (KSAC)
Mon 06:18:10 PM 38.5992 -121.6499 347° North 257 296 4,800 -1,077 Descending FlightAware ADS-B (KSAC)
Mon 06:18:31 PM 38.6216 -121.6564 347° North 240 276 4,500 -900 Descending FlightAware ADS-B (KSAC)
Mon 06:18:50 PM 38.6413 -121.6620 347° North 226 260 4,200 -857 Descending FlightAware ADS-B (KSAC)
Mon 06:19:13 PM 38.6651 -121.6630 North 211 243 3,900 -732 Descending FlightAware ADS-B (KSAC)
Mon 06:19:31 PM 38.6821 -121.6623 North 206 237 3,700 -923 Descending FlightAware ADS-B (KSAC)
Mon 06:19:52 PM 38.7017 -121.6615 North 202 232 3,300 -732 Descending FlightAware ADS-B (KSAC)
Mon 06:20:12 PM 38.7200 -121.6609 North 189 217 3,200 -150 Descending FlightAware ADS-B (KSAC)
Mon 06:20:32 PM 38.7362 -121.6602 North 176 203 3,200  Level FlightAware ADS-B (KSAC)
Mon 06:20:51 PM 38.7520 -121.6597 North 173 199 3,200  Level FlightAware ADS-B (KSAC)
Mon 06:21:12 PM 38.7688 -121.6577 18° North 167 192 3,200 -815 Level FlightAware ADS-B (KSAC)
Mon 06:22:12 PM 38.7733 -121.6116 118° Southeast 137 158 2,100 -1,163 Descending FlightAware ADS-B (KSAC)
Mon 06:22:50 PM 38.7525 -121.5996 183° South 130 150 1,300 -1,200 Descending FlightAware ADS-B (KSAC)
Mon 06:23:12 PM 38.7456 -121.6002 360° North 124 143 900 -973 Descending FlightAware ADS-B (KSAC)
Mon 06:23:27 PM 38.7318 -121.6006 182° South 119 137 700 -483 Descending FlightAware ADS-B (KSAC)
Mon 06:24:39 PM 38.6906 -121.6011 182° South 131 151 200 -417 Descending Oakland Center

Login

Don't have an account? Register now (free) for customized features, flight alerts, and more!